sensor_id;sensor_type;location;lat;lon;timestamp;pressure;altitude;pressure_sealevel;temperature;humidity
58973;BME280;44750;52.040;7.472;2023-12-04T00:01:32;100466.28;;;0.19;100.00
58973;BME280;44750;52.040;7.472;2023-12-04T00:06:32;100462.72;;;0.19;100.00
58973;BME280;44750;52.040;7.472;2023-12-04T00:11:32;100464.66;;;0.16;100.00
58973;BME280;44750;52.040;7.472;2023-12-04T00:16:35;100459.53;;;0.13;100.00
58973;BME280;44750;52.040;7.472;2023-12-04T00:21:36;100462.66;;;0.20;100.00
58973;BME280;44750;52.040;7.472;2023-12-04T00:26:36;100450.94;;;0.08;100.00
58973;BME280;44750;52.040;7.472;2023-12-04T00:31:36;100468.16;;;0.17;100.00
58973;BME280;44750;52.040;7.472;2023-12-04T00:36:36;100467.91;;;0.22;100.00
58973;BME280;44750;52.040;7.472;2023-12-04T00:41:36;100457.91;;;0.11;100.00
58973;BME280;44750;52.040;7.472;2023-12-04T00:46:37;100468.69;;;0.08;100.00
58973;BME280;44750;52.040;7.472;2023-12-04T00:51:38;100468.44;;;0.12;100.00
58973;BME280;44750;52.040;7.472;2023-12-04T00:56:39;100467.50;;;0.13;100.00
58973;BME280;44750;52.040;7.472;2023-12-04T01:01:39;100467.84;;;0.07;100.00
58973;BME280;44750;52.040;7.472;2023-12-04T01:06:39;100488.41;;;0.20;100.00
58973;BME280;44750;52.040;7.472;2023-12-04T01:11:39;100473.38;;;0.19;100.00
58973;BME280;44750;52.040;7.472;2023-12-04T01:16:40;100469.19;;;0.14;100.00
58973;BME280;44750;52.040;7.472;2023-12-04T01:21:40;100469.78;;;0.20;100.00
58973;BME280;44750;52.040;7.472;2023-12-04T01:26:40;100474.94;;;0.23;100.00
58973;BME280;44750;52.040;7.472;2023-12-04T01:31:40;100479.28;;;0.24;100.00
58973;BME280;44750;52.040;7.472;2023-12-04T01:36:41;100479.28;;;0.24;100.00
58973;BME280;44750;52.040;7.472;2023-12-04T01:41:41;100485.28;;;0.27;100.00
58973;BME280;44750;52.040;7.472;2023-12-04T01:46:42;100492.03;;;0.33;100.00
58973;BME280;44750;52.040;7.472;2023-12-04T01:51:43;100481.13;;;0.38;100.00
58973;BME280;44750;52.040;7.472;2023-12-04T01:56:44;100478.94;;;0.30;100.00
58973;BME280;44750;52.040;7.472;2023-12-04T02:01:44;100481.28;;;0.35;100.00
58973;BME280;44750;52.040;7.472;2023-12-04T02:06:44;100483.59;;;0.41;100.00
58973;BME280;44750;52.040;7.472;2023-12-04T02:11:45;100481.63;;;0.44;100.00
58973;BME280;44750;52.040;7.472;2023-12-04T02:16:45;100484.19;;;0.46;100.00
58973;BME280;44750;52.040;7.472;2023-12-04T02:21:46;100469.25;;;0.43;100.00
58973;BME280;44750;52.040;7.472;2023-12-04T02:26:54;100473.16;;;0.52;100.00
58973;BME280;44750;52.040;7.472;2023-12-04T02:31:58;100461.16;;;0.45;100.00
58973;BME280;44750;52.040;7.472;2023-12-04T02:37:02;100454.59;;;0.50;100.00
58973;BME280;44750;52.040;7.472;2023-12-04T02:42:03;100446.06;;;0.45;100.00
58973;BME280;44750;52.040;7.472;2023-12-04T02:47:04;100450.50;;;0.45;100.00
58973;BME280;44750;52.040;7.472;2023-12-04T02:52:04;100435.56;;;0.42;100.00
58973;BME280;44750;52.040;7.472;2023-12-04T02:57:04;100442.41;;;0.46;100.00
58973;BME280;44750;52.040;7.472;2023-12-04T03:02:05;100430.91;;;0.46;100.00
58973;BME280;44750;52.040;7.472;2023-12-04T03:07:05;100425.50;;;0.47;100.00
58973;BME280;44750;52.040;7.472;2023-12-04T03:12:05;100416.47;;;0.50;100.00
58973;BME280;44750;52.040;7.472;2023-12-04T03:17:06;100406.28;;;0.42;100.00
58973;BME280;44750;52.040;7.472;2023-12-04T03:22:06;100403.25;;;0.48;100.00
58973;BME280;44750;52.040;7.472;2023-12-04T03:27:06;100401.31;;;0.50;100.00
58973;BME280;44750;52.040;7.472;2023-12-04T03:32:06;100396.41;;;0.44;100.00
58973;BME280;44750;52.040;7.472;2023-12-04T03:37:07;100371.50;;;0.45;100.00
58973;BME280;44750;52.040;7.472;2023-12-04T03:42:07;100367.09;;;0.44;100.00
58973;BME280;44750;52.040;7.472;2023-12-04T03:47:07;100356.34;;;0.46;100.00
58973;BME280;44750;52.040;7.472;2023-12-04T03:52:07;100348.16;;;0.49;100.00
58973;BME280;44750;52.040;7.472;2023-12-04T03:57:07;100347.69;;;0.57;100.00
58973;BME280;44750;52.040;7.472;2023-12-04T04:02:08;100328.94;;;0.58;100.00
58973;BME280;44750;52.040;7.472;2023-12-04T04:07:08;100298.22;;;0.53;100.00
58973;BME280;44750;52.040;7.472;2023-12-04T04:12:09;100308.50;;;0.59;100.00
58973;BME280;44750;52.040;7.472;2023-12-04T04:17:09;100283.19;;;0.52;100.00
58973;BME280;44750;52.040;7.472;2023-12-04T04:22:09;100294.75;;;0.65;100.00
58973;BME280;44750;52.040;7.472;2023-12-04T04:27:10;100280.28;;;0.69;100.00
58973;BME280;44750;52.040;7.472;2023-12-04T04:32:10;100254.81;;;0.65;100.00
58973;BME280;44750;52.040;7.472;2023-12-04T04:37:11;100262.09;;;0.76;100.00
58973;BME280;44750;52.040;7.472;2023-12-04T04:42:11;100226.06;;;0.70;100.00
58973;BME280;44750;52.040;7.472;2023-12-04T04:47:11;100218.63;;;0.75;100.00
58973;BME280;44750;52.040;7.472;2023-12-04T04:52:12;100213.31;;;0.88;100.00
58973;BME280;44750;52.040;7.472;2023-12-04T04:57:12;100187.41;;;0.90;100.00
58973;BME280;44750;52.040;7.472;2023-12-04T05:02:12;100175.47;;;0.96;100.00
58973;BME280;44750;52.040;7.472;2023-12-04T05:07:12;100155.88;;;0.97;100.00
58973;BME280;44750;52.040;7.472;2023-12-04T05:12:13;100135.50;;;0.96;100.00
58973;BME280;44750;52.040;7.472;2023-12-04T05:17:13;100115.06;;;0.96;100.00
58973;BME280;44750;52.040;7.472;2023-12-04T05:22:13;100094.38;;;1.00;100.00
58973;BME280;44750;52.040;7.472;2023-12-04T05:27:14;100078.28;;;1.02;100.00
58973;BME280;44750;52.040;7.472;2023-12-04T05:32:14;100063.66;;;1.07;100.00
58973;BME280;44750;52.040;7.472;2023-12-04T05:37:14;100021.53;;;0.99;100.00
58973;BME280;44750;52.040;7.472;2023-12-04T05:42:14;100020.91;;;1.09;100.00
58973;BME280;44750;52.040;7.472;2023-12-04T05:47:15;99992.66;;;1.06;100.00
58973;BME280;44750;52.040;7.472;2023-12-04T05:52:15;99976.66;;;1.06;100.00
58973;BME280;44750;52.040;7.472;2023-12-04T05:57:15;99967.28;;;1.13;100.00
58973;BME280;44750;52.040;7.472;2023-12-04T06:02:15;99956.25;;;1.18;100.00
58973;BME280;44750;52.040;7.472;2023-12-04T06:07:16;99930.78;;;1.14;100.00
58973;BME280;44750;52.040;7.472;2023-12-04T06:12:16;99925.88;;;1.21;100.00
58973;BME280;44750;52.040;7.472;2023-12-04T06:17:17;99906.84;;;1.25;100.00
58973;BME280;44750;52.040;7.472;2023-12-04T06:22:17;99884.69;;;1.25;100.00
58973;BME280;44750;52.040;7.472;2023-12-04T06:27:19;99868.69;;;1.25;100.00
58973;BME280;44750;52.040;7.472;2023-12-04T06:32:19;99849.63;;;1.18;100.00
58973;BME280;44750;52.040;7.472;2023-12-04T06:37:20;99831.81;;;1.19;100.00
58973;BME280;44750;52.040;7.472;2023-12-04T06:42:21;99810.47;;;1.19;100.00
58973;BME280;44750;52.040;7.472;2023-12-04T06:47:22;99814.25;;;1.16;100.00
58973;BME280;44750;52.040;7.472;2023-12-04T06:52:23;99804.75;;;1.12;100.00
58973;BME280;44750;52.040;7.472;2023-12-04T06:57:23;99787.09;;;1.11;100.00
58973;BME280;44750;52.040;7.472;2023-12-04T07:02:23;99770.84;;;1.14;100.00
58973;BME280;44750;52.040;7.472;2023-12-04T07:07:23;99744.78;;;1.06;100.00
58973;BME280;44750;52.040;7.472;2023-12-04T07:12:24;99738.47;;;1.07;100.00
58973;BME280;44750;52.040;7.472;2023-12-04T07:17:24;99734.84;;;1.08;100.00
58973;BME280;44750;52.040;7.472;2023-12-04T07:22:24;99716.41;;;1.05;100.00
58973;BME280;44750;52.040;7.472;2023-12-04T07:27:25;99714.00;;;1.02;100.00
58973;BME280;44750;52.040;7.472;2023-12-04T07:32:25;99699.72;;;1.03;100.00
58973;BME280;44750;52.040;7.472;2023-12-04T07:37:25;99705.03;;;1.03;100.00
58973;BME280;44750;52.040;7.472;2023-12-04T07:42:25;99692.34;;;1.07;100.00
58973;BME280;44750;52.040;7.472;2023-12-04T07:47:26;99683.59;;;1.05;100.00
58973;BME280;44750;52.040;7.472;2023-12-04T07:52:26;99666.84;;;1.03;100.00
58973;BME280;44750;52.040;7.472;2023-12-04T07:57:26;99664.09;;;1.04;100.00
58973;BME280;44750;52.040;7.472;2023-12-04T08:02:26;99645.91;;;1.09;100.00
58973;BME280;44750;52.040;7.472;2023-12-04T08:07:27;99629.91;;;1.09;100.00
58973;BME280;44750;52.040;7.472;2023-12-04T08:12:27;99624.59;;;1.09;100.00
58973;BME280;44750;52.040;7.472;2023-12-04T08:17:27;99613.94;;;1.09;100.00
58973;BME280;44750;52.040;7.472;2023-12-04T08:22:27;99592.59;;;1.09;100.00
58973;BME280;44750;52.040;7.472;2023-12-04T08:27:28;99593.22;;;1.13;100.00
58973;BME280;44750;52.040;7.472;2023-12-04T08:32:28;99585.38;;;1.23;100.00
58973;BME280;44750;52.040;7.472;2023-12-04T08:37:28;99577.38;;;1.23;100.00
58973;BME280;44750;52.040;7.472;2023-12-04T08:42:29;99571.53;;;1.29;100.00
58973;BME280;44750;52.040;7.472;2023-12-04T08:47:29;99553.84;;;1.28;100.00
58973;BME280;44750;52.040;7.472;2023-12-04T08:52:30;99552.16;;;1.27;100.00
58973;BME280;44750;52.040;7.472;2023-12-04T08:57:30;99550.69;;;1.34;100.00
58973;BME280;44750;52.040;7.472;2023-12-04T09:02:30;99548.63;;;1.38;100.00
58973;BME280;44750;52.040;7.472;2023-12-04T09:07:30;99547.06;;;1.35;100.00
58973;BME280;44750;52.040;7.472;2023-12-04T09:12:31;99533.13;;;1.43;100.00
58973;BME280;44750;52.040;7.472;2023-12-04T09:17:31;99531.03;;;1.46;100.00
58973;BME280;44750;52.040;7.472;2023-12-04T09:22:32;99521.22;;;1.47;100.00
58973;BME280;44750;52.040;7.472;2023-12-04T09:27:32;99513.94;;;1.49;100.00
58973;BME280;44750;52.040;7.472;2023-12-04T09:32:32;99510.31;;;1.50;100.00
58973;BME280;44750;52.040;7.472;2023-12-04T09:37:32;99506.53;;;1.53;100.00
58973;BME280;44750;52.040;7.472;2023-12-04T09:42:33;99503.38;;;1.59;100.00
58973;BME280;44750;52.040;7.472;2023-12-04T09:47:34;99496.56;;;1.66;100.00
58973;BME280;44750;52.040;7.472;2023-12-04T09:52:34;99482.00;;;1.70;100.00
58973;BME280;44750;52.040;7.472;2023-12-04T09:57:34;99464.19;;;1.71;100.00
58973;BME280;44750;52.040;7.472;2023-12-04T10:02:35;99469.59;;;1.80;100.00
58973;BME280;44750;52.040;7.472;2023-12-04T10:07:36;99445.31;;;1.83;100.00
58973;BME280;44750;52.040;7.472;2023-12-04T10:12:36;99393.97;;;1.70;100.00
58973;BME280;44750;52.040;7.472;2023-12-04T10:17:38;99396.81;;;1.78;100.00
58973;BME280;44750;52.040;7.472;2023-12-04T10:22:59;99372.94;;;1.77;100.00
58973;BME280;44750;52.040;7.472;2023-12-04T10:28:11;99363.47;;;1.84;100.00
58973;BME280;44750;52.040;7.472;2023-12-04T10:33:12;99346.22;;;1.88;100.00
58973;BME280;44750;52.040;7.472;2023-12-04T10:38:12;99334.81;;;1.86;100.00
58973;BME280;44750;52.040;7.472;2023-12-04T10:43:20;99301.38;;;1.82;100.00
58973;BME280;44750;52.040;7.472;2023-12-04T10:48:21;99296.34;;;1.89;100.00
58973;BME280;44750;52.040;7.472;2023-12-04T10:53:21;99269.38;;;1.92;100.00
58973;BME280;44750;52.040;7.472;2023-12-04T10:58:26;99268.03;;;1.97;100.00
58973;BME280;44750;52.040;7.472;2023-12-04T11:03:32;99242.19;;;1.98;100.00
58973;BME280;44750;52.040;7.472;2023-12-04T11:08:36;99236.56;;;2.01;100.00
58973;BME280;44750;52.040;7.472;2023-12-04T11:13:41;99222.78;;;1.96;100.00
58973;BME280;44750;52.040;7.472;2023-12-04T11:18:43;99222.84;;;2.06;100.00
58973;BME280;44750;52.040;7.472;2023-12-04T11:23:44;99206.41;;;2.10;100.00
58973;BME280;44750;52.040;7.472;2023-12-04T11:28:45;99189.13;;;2.14;100.00
58973;BME280;44750;52.040;7.472;2023-12-04T11:33:46;99173.97;;;2.25;100.00
58973;BME280;44750;52.040;7.472;2023-12-04T11:38:48;99175.41;;;2.39;100.00
58973;BME280;44750;52.040;7.472;2023-12-04T11:43:48;99169.50;;;2.45;100.00
58973;BME280;44750;52.040;7.472;2023-12-04T11:49:28;99139.00;;;2.47;100.00
58973;BME280;44750;52.040;7.472;2023-12-04T11:54:28;99133.25;;;2.62;100.00
58973;BME280;44750;52.040;7.472;2023-12-04T11:59:29;99110.19;;;2.61;100.00
58973;BME280;44750;52.040;7.472;2023-12-04T12:04:34;99094.44;;;2.67;100.00
58973;BME280;44750;52.040;7.472;2023-12-04T12:09:34;99083.75;;;2.67;100.00
58973;BME280;44750;52.040;7.472;2023-12-04T12:14:35;99064.34;;;2.65;100.00
58973;BME280;44750;52.040;7.472;2023-12-04T12:19:35;99048.88;;;2.69;100.00
58973;BME280;44750;52.040;7.472;2023-12-04T12:24:36;99045.47;;;2.77;100.00
58973;BME280;44750;52.040;7.472;2023-12-04T12:29:36;99027.50;;;2.79;100.00
58973;BME280;44750;52.040;7.472;2023-12-04T12:34:36;99007.66;;;2.81;100.00
58973;BME280;44750;52.040;7.472;2023-12-04T12:39:36;99006.06;;;2.89;100.00
58973;BME280;44750;52.040;7.472;2023-12-04T12:44:40;98997.19;;;2.98;100.00
58973;BME280;44750;52.040;7.472;2023-12-04T12:49:41;98973.53;;;3.03;100.00
58973;BME280;44750;52.040;7.472;2023-12-04T12:54:42;98962.13;;;3.01;100.00
58973;BME280;44750;52.040;7.472;2023-12-04T12:59:43;98953.69;;;3.06;100.00
58973;BME280;44750;52.040;7.472;2023-12-04T13:04:44;98932.59;;;3.03;100.00
58973;BME280;44750;52.040;7.472;2023-12-04T13:09:44;98916.00;;;2.99;100.00
58973;BME280;44750;52.040;7.472;2023-12-04T13:14:44;98889.19;;;2.91;100.00
58973;BME280;44750;52.040;7.472;2023-12-04T13:19:44;98891.84;;;2.91;100.00
58973;BME280;44750;52.040;7.472;2023-12-04T13:24:45;98867.41;;;2.86;100.00
58973;BME280;44750;52.040;7.472;2023-12-04T13:29:45;98847.06;;;2.75;100.00
58973;BME280;44750;52.040;7.472;2023-12-04T13:34:45;98821.50;;;2.72;100.00
58973;BME280;44750;52.040;7.472;2023-12-04T13:39:45;98809.72;;;2.65;100.00
58973;BME280;44750;52.040;7.472;2023-12-04T13:44:46;98813.00;;;2.77;100.00
58973;BME280;44750;52.040;7.472;2023-12-04T13:49:46;98789.19;;;2.65;100.00
58973;BME280;44750;52.040;7.472;2023-12-04T13:54:46;98786.38;;;2.67;100.00
58973;BME280;44750;52.040;7.472;2023-12-04T13:59:46;98779.56;;;2.73;100.00
58973;BME280;44750;52.040;7.472;2023-12-04T14:04:47;98745.75;;;2.63;100.00
58973;BME280;44750;52.040;7.472;2023-12-04T14:09:47;98762.75;;;2.62;100.00
58973;BME280;44750;52.040;7.472;2023-12-04T14:14:47;98751.25;;;2.62;100.00
58973;BME280;44750;52.040;7.472;2023-12-04T14:19:47;98743.81;;;2.56;100.00
58973;BME280;44750;52.040;7.472;2023-12-04T14:24:48;98738.25;;;2.49;100.00
58973;BME280;44750;52.040;7.472;2023-12-04T14:29:48;98717.63;;;2.41;100.00
58973;BME280;44750;52.040;7.472;2023-12-04T14:34:48;98716.63;;;2.42;100.00
58973;BME280;44750;52.040;7.472;2023-12-04T14:39:48;98733.38;;;2.44;100.00
58973;BME280;44750;52.040;7.472;2023-12-04T14:44:49;98718.53;;;2.32;100.00
58973;BME280;44750;52.040;7.472;2023-12-04T14:49:49;98729.34;;;2.30;100.00
58973;BME280;44750;52.040;7.472;2023-12-04T14:54:49;98725.03;;;2.29;100.00
58973;BME280;44750;52.040;7.472;2023-12-04T14:59:49;98706.75;;;2.25;100.00
58973;BME280;44750;52.040;7.472;2023-12-04T15:04:50;98712.69;;;2.18;100.00
58973;BME280;44750;52.040;7.472;2023-12-04T15:09:50;98694.31;;;2.15;100.00
58973;BME280;44750;52.040;7.472;2023-12-04T15:14:50;98700.78;;;2.13;100.00
58973;BME280;44750;52.040;7.472;2023-12-04T15:19:50;98705.88;;;2.06;100.00
58973;BME280;44750;52.040;7.472;2023-12-04T15:24:51;98728.75;;;2.09;100.00
58973;BME280;44750;52.040;7.472;2023-12-04T15:29:51;98736.91;;;2.07;100.00
58973;BME280;44750;52.040;7.472;2023-12-04T15:34:51;98744.34;;;2.13;100.00
58973;BME280;44750;52.040;7.472;2023-12-04T15:39:51;98759.34;;;2.14;100.00
58973;BME280;44750;52.040;7.472;2023-12-04T15:44:52;98760.38;;;2.04;100.00
58973;BME280;44750;52.040;7.472;2023-12-04T15:49:52;98773.19;;;2.00;100.00
58973;BME280;44750;52.040;7.472;2023-12-04T15:54:52;98788.41;;;1.90;100.00
58973;BME280;44750;52.040;7.472;2023-12-04T15:59:53;98802.00;;;1.87;100.00
58973;BME280;44750;52.040;7.472;2023-12-04T16:04:53;98810.75;;;1.79;100.00
58973;BME280;44750;52.040;7.472;2023-12-04T16:09:53;98818.06;;;1.67;100.00
58973;BME280;44750;52.040;7.472;2023-12-04T16:14:53;98854.44;;;1.68;100.00
58973;BME280;44750;52.040;7.472;2023-12-04T16:19:54;98867.19;;;1.64;100.00
58973;BME280;44750;52.040;7.472;2023-12-04T16:24:54;98874.63;;;1.61;100.00
58973;BME280;44750;52.040;7.472;2023-12-04T16:29:54;98883.22;;;1.55;100.00
58973;BME280;44750;52.040;7.472;2023-12-04T16:34:54;98891.34;;;1.43;100.00
58973;BME280;44750;52.040;7.472;2023-12-04T16:39:55;98919.25;;;1.49;100.00
58973;BME280;44750;52.040;7.472;2023-12-04T16:44:55;98929.78;;;1.50;100.00
58973;BME280;44750;52.040;7.472;2023-12-04T16:49:55;98935.56;;;1.46;100.00
58973;BME280;44750;52.040;7.472;2023-12-04T16:54:55;98941.03;;;1.44;100.00
58973;BME280;44750;52.040;7.472;2023-12-04T16:59:56;98959.13;;;1.41;100.00
58973;BME280;44750;52.040;7.472;2023-12-04T17:04:56;98957.16;;;1.43;100.00
58973;BME280;44750;52.040;7.472;2023-12-04T17:09:57;98967.53;;;1.46;100.00
58973;BME280;44750;52.040;7.472;2023-12-04T17:14:57;98979.22;;;1.55;100.00
58973;BME280;44750;52.040;7.472;2023-12-04T17:19:57;98970.66;;;1.51;100.00
58973;BME280;44750;52.040;7.472;2023-12-04T17:24:57;98985.09;;;1.48;100.00
58973;BME280;44750;52.040;7.472;2023-12-04T17:29:58;98986.78;;;1.49;100.00
58973;BME280;44750;52.040;7.472;2023-12-04T17:34:58;99004.59;;;1.49;100.00
58973;BME280;44750;52.040;7.472;2023-12-04T17:39:59;99018.38;;;1.54;100.00
58973;BME280;44750;52.040;7.472;2023-12-04T17:45:01;99017.78;;;1.50;100.00
58973;BME280;44750;52.040;7.472;2023-12-04T17:50:01;99016.22;;;1.48;100.00
58973;BME280;44750;52.040;7.472;2023-12-04T17:55:01;99014.00;;;1.53;100.00
58973;BME280;44750;52.040;7.472;2023-12-04T18:00:03;99028.59;;;1.49;100.00
58973;BME280;44750;52.040;7.472;2023-12-04T18:05:04;99033.94;;;1.49;100.00
58973;BME280;44750;52.040;7.472;2023-12-04T18:10:04;99018.19;;;1.36;100.00
58973;BME280;44750;52.040;7.472;2023-12-04T18:15:07;99027.03;;;1.37;100.00
58973;BME280;44750;52.040;7.472;2023-12-04T18:20:09;99042.75;;;1.40;100.00
58973;BME280;44750;52.040;7.472;2023-12-04T18:25:10;99037.16;;;1.43;100.00
58973;BME280;44750;52.040;7.472;2023-12-04T18:30:11;99043.84;;;1.37;100.00
58973;BME280;44750;52.040;7.472;2023-12-04T18:35:12;99056.78;;;1.42;100.00
58973;BME280;44750;52.040;7.472;2023-12-04T18:40:13;99055.75;;;1.33;100.00
58973;BME280;44750;52.040;7.472;2023-12-04T18:45:15;99051.00;;;1.27;100.00
58973;BME280;44750;52.040;7.472;2023-12-04T18:50:15;99062.34;;;1.29;100.00
58973;BME280;44750;52.040;7.472;2023-12-04T18:55:16;99072.75;;;1.32;100.00
58973;BME280;44750;52.040;7.472;2023-12-04T19:00:16;99071.91;;;1.31;100.00
58973;BME280;44750;52.040;7.472;2023-12-04T19:05:16;99080.03;;;1.30;100.00
58973;BME280;44750;52.040;7.472;2023-12-04T19:10:17;99077.19;;;1.22;100.00
58973;BME280;44750;52.040;7.472;2023-12-04T19:15:17;99082.41;;;1.23;100.00
58973;BME280;44750;52.040;7.472;2023-12-04T19:20:17;99086.16;;;1.21;100.00
58973;BME280;44750;52.040;7.472;2023-12-04T19:25:17;99088.84;;;1.21;100.00
58973;BME280;44750;52.040;7.472;2023-12-04T19:30:17;99086.44;;;1.17;100.00
58973;BME280;44750;52.040;7.472;2023-12-04T19:35:18;99087.56;;;1.15;100.00
58973;BME280;44750;52.040;7.472;2023-12-04T19:40:18;99082.91;;;1.17;100.00
58973;BME280;44750;52.040;7.472;2023-12-04T19:45:18;99086.31;;;1.19;100.00
58973;BME280;44750;52.040;7.472;2023-12-04T19:50:18;99098.78;;;1.19;100.00
58973;BME280;44750;52.040;7.472;2023-12-04T19:55:19;99110.47;;;1.27;100.00
58973;BME280;44750;52.040;7.472;2023-12-04T20:00:19;99109.88;;;1.24;100.00
58973;BME280;44750;52.040;7.472;2023-12-04T20:05:19;99109.31;;;1.20;100.00
58973;BME280;44750;52.040;7.472;2023-12-04T20:10:20;99110.44;;;1.17;100.00
58973;BME280;44750;52.040;7.472;2023-12-04T20:15:20;99117.97;;;1.12;100.00
58973;BME280;44750;52.040;7.472;2023-12-04T20:20:20;99121.47;;;1.13;100.00
58973;BME280;44750;52.040;7.472;2023-12-04T20:25:20;99131.44;;;1.11;100.00
58973;BME280;44750;52.040;7.472;2023-12-04T20:30:21;99142.28;;;1.19;100.00
58973;BME280;44750;52.040;7.472;2023-12-04T20:35:21;99142.94;;;1.11;100.00
58973;BME280;44750;52.040;7.472;2023-12-04T20:40:21;99149.22;;;1.31;100.00
58973;BME280;44750;52.040;7.472;2023-12-04T20:45:25;99149.63;;;1.27;100.00
58973;BME280;44750;52.040;7.472;2023-12-04T20:50:25;99148.44;;;1.20;100.00
58973;BME280;44750;52.040;7.472;2023-12-04T20:55:26;99153.06;;;1.17;100.00
58973;BME280;44750;52.040;7.472;2023-12-04T21:00:26;99164.06;;;1.24;100.00
58973;BME280;44750;52.040;7.472;2023-12-04T21:05:26;99174.13;;;1.21;100.00
58973;BME280;44750;52.040;7.472;2023-12-04T21:10:26;99166.72;;;1.24;100.00
58973;BME280;44750;52.040;7.472;2023-12-04T21:15:27;99172.06;;;1.24;100.00
58973;BME280;44750;52.040;7.472;2023-12-04T21:20:27;99179.66;;;1.29;100.00
58973;BME280;44750;52.040;7.472;2023-12-04T21:25:27;99187.50;;;1.30;100.00
58973;BME280;44750;52.040;7.472;2023-12-04T21:30:27;99200.19;;;1.38;100.00
58973;BME280;44750;52.040;7.472;2023-12-04T21:35:28;99176.38;;;1.25;100.00
58973;BME280;44750;52.040;7.472;2023-12-04T21:40:28;99193.38;;;1.24;100.00
58973;BME280;44750;52.040;7.472;2023-12-04T21:45:28;99199.53;;;1.25;100.00
58973;BME280;44750;52.040;7.472;2023-12-04T21:50:28;99197.72;;;1.25;100.00
58973;BME280;44750;52.040;7.472;2023-12-04T21:55:29;99206.06;;;1.32;100.00
58973;BME280;44750;52.040;7.472;2023-12-04T22:00:29;99203.13;;;1.35;100.00
58973;BME280;44750;52.040;7.472;2023-12-04T22:05:29;99203.25;;;1.33;100.00
58973;BME280;44750;52.040;7.472;2023-12-04T22:10:29;99220.53;;;1.39;100.00
58973;BME280;44750;52.040;7.472;2023-12-04T22:15:30;99218.47;;;1.43;100.00
58973;BME280;44750;52.040;7.472;2023-12-04T22:20:31;99207.50;;;1.36;100.00
58973;BME280;44750;52.040;7.472;2023-12-04T22:25:31;99197.78;;;1.35;100.00
58973;BME280;44750;52.040;7.472;2023-12-04T22:30:31;99214.94;;;1.42;100.00
58973;BME280;44750;52.040;7.472;2023-12-04T22:35:31;99220.72;;;1.47;100.00
58973;BME280;44750;52.040;7.472;2023-12-04T22:40:32;99215.53;;;1.46;100.00
58973;BME280;44750;52.040;7.472;2023-12-04T22:45:32;99227.50;;;1.52;100.00
58973;BME280;44750;52.040;7.472;2023-12-04T22:50:32;99221.47;;;1.49;100.00
58973;BME280;44750;52.040;7.472;2023-12-04T22:55:33;99205.94;;;1.33;100.00
58973;BME280;44750;52.040;7.472;2023-12-04T23:00:33;99209.03;;;1.39;100.00
58973;BME280;44750;52.040;7.472;2023-12-04T23:05:33;99212.03;;;1.45;100.00
58973;BME280;44750;52.040;7.472;2023-12-04T23:10:33;99209.59;;;1.42;100.00
58973;BME280;44750;52.040;7.472;2023-12-04T23:15:34;99219.47;;;1.52;100.00
58973;BME280;44750;52.040;7.472;2023-12-04T23:20:34;99221.91;;;1.55;100.00
58973;BME280;44750;52.040;7.472;2023-12-04T23:25:34;99227.09;;;1.56;100.00
58973;BME280;44750;52.040;7.472;2023-12-04T23:30:34;99213.47;;;1.49;100.00
58973;BME280;44750;52.040;7.472;2023-12-04T23:35:35;99226.97;;;1.58;100.00
58973;BME280;44750;52.040;7.472;2023-12-04T23:40:35;99217.53;;;1.54;100.00
58973;BME280;44750;52.040;7.472;2023-12-04T23:45:35;99231.34;;;1.59;100.00
58973;BME280;44750;52.040;7.472;2023-12-04T23:50:35;99223.56;;;1.56;100.00
58973;BME280;44750;52.040;7.472;2023-12-04T23:55:36;99224.31;;;1.58;100.00
